createdAt,value
2023-10-31T00:02:35.595Z,2.60
2023-10-31T00:05:37.939Z,2.30
2023-10-31T00:08:40.240Z,2.75
2023-10-31T00:11:45.882Z,2.72
2023-10-31T00:14:48.213Z,3.00
2023-10-31T00:17:50.602Z,2.50
2023-10-31T00:20:53.009Z,3.42
2023-10-31T00:23:55.340Z,2.42
2023-10-31T00:26:57.701Z,2.40
2023-10-31T00:30:00.034Z,2.22
2023-10-31T00:33:03.099Z,2.70
2023-10-31T00:36:07.938Z,1.95
2023-10-31T00:39:10.277Z,2.22
2023-10-31T00:42:12.623Z,2.65
2023-10-31T00:45:15.049Z,2.20
2023-10-31T00:48:17.724Z,2.33
2023-10-31T00:51:20.052Z,2.67
2023-10-31T00:54:22.378Z,2.35
2023-10-31T00:57:25.009Z,2.78
2023-10-31T01:00:27.358Z,2.70
2023-10-31T01:03:30.394Z,2.20
2023-10-31T01:06:32.697Z,2.30
2023-10-31T01:09:35.119Z,2.15
2023-10-31T01:12:38.070Z,2.33
2023-10-31T01:15:40.605Z,2.00
2023-10-31T01:18:43.022Z,2.67
2023-10-31T01:21:45.827Z,2.28
2023-10-31T01:24:48.116Z,2.05
2023-10-31T01:27:50.508Z,2.00
2023-10-31T01:30:52.748Z,2.15
2023-10-31T01:33:55.154Z,2.63
2023-10-31T01:36:58.421Z,2.45
2023-10-31T01:40:00.860Z,2.20
2023-10-31T01:43:03.134Z,1.80
2023-10-31T01:46:06.348Z,2.60
2023-10-31T01:49:08.903Z,2.08
2023-10-31T01:52:11.335Z,2.42
2023-10-31T01:55:14.818Z,2.13
2023-10-31T01:58:17.498Z,2.35
2023-10-31T02:01:20.668Z,2.15
2023-10-31T02:04:23.054Z,2.30
2023-10-31T02:07:25.448Z,2.80
2023-10-31T02:10:27.801Z,2.60
2023-10-31T02:13:30.219Z,2.80
2023-10-31T02:16:32.699Z,2.40
2023-10-31T02:19:35.105Z,2.53
2023-10-31T02:22:38.200Z,2.13
2023-10-31T02:25:40.746Z,2.25
2023-10-31T02:28:44.085Z,2.40
2023-10-31T02:31:49.892Z,2.50
2023-10-31T02:34:52.433Z,2.88
2023-10-31T02:37:54.882Z,2.30
2023-10-31T02:40:57.310Z,2.55
2023-10-31T02:43:59.811Z,2.53
2023-10-31T02:47:03.202Z,2.55
2023-10-31T02:50:06.152Z,2.10
2023-10-31T02:53:08.554Z,2.05
2023-10-31T02:56:10.956Z,2.70
2023-10-31T02:59:14.164Z,2.80
2023-10-31T03:02:16.566Z,2.67
2023-10-31T03:05:19.025Z,2.80
2023-10-31T03:08:22.081Z,2.85
2023-10-31T03:11:25.912Z,2.90
2023-10-31T03:14:28.185Z,2.33
2023-10-31T03:17:31.115Z,2.75
2023-10-31T03:20:34.867Z,2.63
2023-10-31T03:23:37.432Z,3.08
2023-10-31T03:26:39.814Z,2.97
2023-10-31T03:29:42.355Z,3.08
2023-10-31T03:32:44.728Z,3.58
2023-10-31T03:35:47.898Z,2.53
2023-10-31T03:38:50.642Z,3.20
2023-10-31T03:41:54.483Z,3.17
2023-10-31T03:45:00.617Z,2.83
2023-10-31T03:48:03.044Z,3.00
2023-10-31T03:51:06.198Z,2.97
2023-10-31T03:54:09.638Z,3.33
2023-10-31T03:57:12.233Z,2.47
2023-10-31T04:00:15.090Z,2.83
2023-10-31T04:03:17.654Z,2.72
2023-10-31T04:06:20.469Z,3.00
2023-10-31T04:09:22.902Z,2.65
2023-10-31T04:12:25.468Z,3.80
2023-10-31T04:15:27.798Z,3.33
2023-10-31T04:18:30.048Z,2.88
2023-10-31T04:21:32.307Z,2.72
2023-10-31T04:24:34.644Z,3.17
2023-10-31T04:27:36.947Z,3.05
2023-10-31T04:30:39.257Z,3.03
2023-10-31T04:33:41.586Z,3.33
2023-10-31T04:36:43.992Z,2.80
2023-10-31T04:39:46.361Z,2.75
2023-10-31T04:42:49.142Z,2.95
2023-10-31T04:45:51.431Z,3.05
2023-10-31T04:48:54.863Z,3.17
2023-10-31T04:51:57.194Z,2.72
2023-10-31T04:54:59.691Z,2.83
2023-10-31T04:58:02.062Z,2.75
2023-10-31T05:01:04.639Z,2.60
2023-10-31T05:04:12.816Z,3.22
2023-10-31T05:07:15.820Z,2.53
2023-10-31T05:10:18.088Z,2.63
2023-10-31T05:13:20.552Z,2.10
2023-10-31T05:16:22.836Z,2.13
2023-10-31T05:19:25.264Z,2.08
2023-10-31T05:22:27.592Z,2.40
2023-10-31T05:25:30.033Z,2.10
2023-10-31T05:28:32.377Z,2.50
2023-10-31T05:31:34.760Z,2.10
2023-10-31T05:34:37.227Z,2.33
2023-10-31T05:37:39.478Z,2.80
2023-10-31T05:40:41.947Z,2.22
2023-10-31T05:43:44.414Z,2.05
2023-10-31T05:46:46.802Z,2.40
2023-10-31T05:49:49.604Z,2.20
2023-10-31T05:52:52.230Z,3.00
2023-10-31T05:55:55.042Z,2.40
2023-10-31T05:58:57.420Z,3.00
2023-10-31T06:02:00.144Z,3.08
2023-10-31T06:05:04.561Z,2.67
2023-10-31T06:08:07.399Z,2.83
2023-10-31T06:11:14.317Z,2.60
2023-10-31T06:14:16.894Z,2.72
2023-10-31T06:17:19.270Z,2.78
2023-10-31T06:20:21.681Z,2.95
2023-10-31T06:23:24.339Z,3.25
2023-10-31T06:26:26.812Z,2.65
2023-10-31T06:29:49.246Z,3.67
2023-10-31T06:32:52.298Z,2.90
2023-10-31T06:35:55.108Z,3.15
2023-10-31T06:38:57.890Z,2.15
2023-10-31T06:42:00.271Z,2.70
2023-10-31T06:45:02.989Z,2.70
2023-10-31T06:48:08.532Z,2.53
2023-10-31T06:51:10.931Z,3.22
2023-10-31T06:54:13.528Z,2.28
2023-10-31T06:57:17.045Z,2.42
2023-10-31T07:00:19.484Z,2.53
2023-10-31T07:03:22.077Z,2.42
2023-10-31T07:06:24.418Z,3.67
2023-10-31T07:09:27.669Z,2.17
2023-10-31T07:12:30.007Z,2.08
2023-10-31T07:15:32.335Z,2.20
2023-10-31T07:18:34.704Z,2.30
2023-10-31T07:21:37.007Z,1.95
2023-10-31T07:24:39.309Z,2.03
2023-10-31T07:27:41.625Z,2.05
2023-10-31T07:30:44.076Z,1.95
2023-10-31T07:33:47.161Z,2.00
2023-10-31T07:36:49.576Z,1.60
2023-10-31T07:39:54.747Z,1.73
2023-10-31T07:42:57.120Z,1.45
2023-10-31T07:45:59.573Z,1.40
2023-10-31T07:49:01.881Z,1.52
2023-10-31T07:52:04.405Z,1.20
2023-10-31T07:55:07.129Z,1.48
2023-10-31T07:58:10.773Z,1.30
2023-10-31T08:01:13.335Z,1.45
2023-10-31T08:04:16.635Z,1.33
2023-10-31T08:07:18.965Z,0.98
2023-10-31T08:10:21.212Z,1.02
2023-10-31T08:13:23.543Z,0.93
2023-10-31T08:16:25.918Z,0.80
2023-10-31T08:19:28.246Z,0.80
2023-10-31T08:22:30.668Z,0.80
2023-10-31T08:25:33.019Z,1.02
2023-10-31T08:28:35.635Z,0.90
2023-10-31T08:31:37.975Z,0.95
2023-10-31T08:34:40.321Z,0.77
2023-10-31T08:37:42.597Z,0.70
2023-10-31T08:40:45.841Z,0.80
2023-10-31T08:43:48.709Z,0.90
2023-10-31T08:46:51.261Z,0.70
2023-10-31T08:49:53.566Z,0.70
2023-10-31T08:52:55.990Z,0.70
2023-10-31T08:55:58.368Z,0.60
2023-10-31T08:59:00.981Z,0.70
2023-10-31T09:02:03.590Z,0.60
2023-10-31T09:05:06.457Z,0.60
2023-10-31T09:08:08.924Z,0.60
2023-10-31T09:11:11.316Z,0.47
2023-10-31T09:14:13.764Z,0.63
2023-10-31T09:17:16.245Z,0.40
2023-10-31T09:20:19.066Z,0.60
2023-10-31T09:23:21.575Z,0.40
2023-10-31T09:26:24.009Z,0.40
2023-10-31T09:29:30.015Z,0.50
2023-10-31T09:32:32.892Z,0.57
2023-10-31T09:35:35.221Z,0.40
2023-10-31T09:38:37.702Z,0.70
2023-10-31T09:41:40.018Z,0.47
2023-10-31T09:44:42.655Z,0.43
2023-10-31T09:47:45.287Z,0.50
2023-10-31T09:50:48.656Z,0.40
2023-10-31T09:53:55.222Z,0.40
2023-10-31T09:56:58.274Z,0.50
2023-10-31T10:00:01.356Z,0.47
2023-10-31T10:03:05.349Z,0.38
2023-10-31T10:06:08.464Z,0.40
2023-10-31T10:09:10.745Z,0.43
2023-10-31T10:12:18.140Z,0.40
2023-10-31T10:15:20.758Z,0.38
2023-10-31T10:18:30.507Z,0.40
2023-10-31T10:21:57.796Z,0.30
2023-10-31T10:25:00.123Z,0.60
2023-10-31T10:28:04.085Z,0.50
2023-10-31T10:31:07.738Z,0.60
2023-10-31T10:34:11.141Z,0.43
2023-10-31T10:37:14.513Z,0.63
2023-10-31T10:40:17.788Z,0.65
2023-10-31T10:43:23.636Z,0.68
2023-10-31T10:46:33.668Z,0.70
2023-10-31T10:52:49.875Z,0.70
2023-10-31T10:55:56.916Z,0.73
2023-10-31T10:59:13.082Z,0.70
2023-10-31T11:02:16.714Z,0.90
2023-10-31T11:05:19.445Z,0.80
2023-10-31T11:08:24.709Z,1.35
2023-10-31T11:11:27.894Z,1.30
2023-10-31T11:14:32.277Z,0.80
2023-10-31T11:17:43.469Z,0.70
2023-10-31T11:20:46.616Z,0.80
2023-10-31T11:23:59.256Z,0.70
2023-10-31T11:27:03.269Z,0.50
2023-10-31T11:30:20.785Z,0.50
2023-10-31T11:33:25.091Z,0.50
2023-10-31T11:36:27.919Z,0.40
2023-10-31T11:39:30.811Z,0.47
2023-10-31T11:42:35.249Z,0.30
2023-10-31T11:45:41.916Z,0.50
2023-10-31T11:48:52.827Z,0.50
2023-10-31T11:51:56.374Z,0.52
2023-10-31T11:54:58.788Z,0.40
2023-10-31T11:58:20.512Z,0.40
2023-10-31T12:01:22.927Z,0.55
2023-10-31T12:04:25.489Z,0.30
2023-10-31T12:07:28.058Z,0.40
2023-10-31T12:10:33.922Z,0.60
2023-10-31T12:13:53.073Z,0.50
2023-10-31T12:16:57.393Z,0.40
2023-10-31T12:20:08.628Z,0.40
2023-10-31T12:23:10.992Z,0.40
2023-10-31T12:26:13.322Z,0.38
2023-10-31T12:29:17.659Z,0.57
2023-10-31T12:32:20.013Z,0.63
2023-10-31T12:35:24.337Z,0.75
2023-10-31T12:38:27.209Z,0.60
2023-10-31T12:41:30.019Z,0.40
2023-10-31T12:44:33.503Z,0.60
2023-10-31T12:47:36.461Z,0.45
2023-10-31T12:50:41.591Z,0.40
2023-10-31T12:53:49.313Z,0.40
2023-10-31T12:56:51.783Z,0.55
2023-10-31T12:59:57.408Z,0.40
2023-10-31T13:03:09.806Z,0.60
2023-10-31T13:06:16.945Z,0.50
2023-10-31T13:09:20.309Z,0.45
2023-10-31T13:12:27.320Z,0.50
2023-10-31T13:15:30.144Z,0.40
2023-10-31T13:18:35.031Z,0.40
2023-10-31T13:21:37.382Z,0.50
2023-10-31T13:24:41.665Z,0.50
2023-10-31T13:27:51.572Z,0.50
2023-10-31T13:30:53.898Z,0.50
2023-10-31T13:33:56.377Z,0.50
2023-10-31T13:36:59.222Z,0.43
2023-10-31T13:40:01.523Z,0.50
2023-10-31T13:43:04.568Z,0.70
2023-10-31T13:46:07.649Z,0.47
2023-10-31T13:49:10.537Z,0.65
2023-10-31T13:52:12.933Z,0.65
2023-10-31T13:55:15.402Z,0.70
2023-10-31T13:58:17.717Z,0.60
2023-10-31T14:01:26.034Z,0.70
2023-10-31T14:04:30.422Z,0.60
2023-10-31T14:07:33.290Z,0.50
2023-10-31T14:10:35.748Z,0.50
2023-10-31T14:13:38.434Z,0.50
2023-10-31T14:16:47.217Z,0.60
2023-10-31T14:19:50.113Z,0.57
2023-10-31T14:22:52.536Z,0.55
2023-10-31T14:25:54.799Z,0.60
2023-10-31T14:28:57.619Z,0.57
2023-10-31T14:32:10.375Z,0.75
2023-10-31T14:35:13.075Z,1.15
2023-10-31T14:38:15.411Z,0.65
2023-10-31T14:41:17.779Z,0.70
2023-10-31T14:44:20.198Z,0.70
2023-10-31T14:47:22.654Z,0.70
2023-10-31T14:50:25.212Z,0.93
2023-10-31T14:53:27.711Z,0.60
2023-10-31T14:56:31.241Z,0.60
2023-10-31T14:59:34.854Z,0.80
2023-10-31T15:02:37.273Z,0.60
2023-10-31T15:05:39.803Z,0.70
2023-10-31T15:08:42.201Z,0.63
2023-10-31T15:11:44.650Z,0.50
2023-10-31T15:14:47.130Z,0.95
2023-10-31T15:17:49.722Z,0.80
2023-10-31T15:20:52.035Z,0.80
2023-10-31T15:23:55.082Z,0.60
2023-10-31T15:26:58.365Z,0.60
2023-10-31T15:30:00.750Z,0.60
2023-10-31T15:33:03.214Z,0.63
2023-10-31T15:36:06.144Z,0.90
2023-10-31T15:39:09.413Z,0.88
2023-10-31T15:42:11.814Z,0.45
2023-10-31T15:45:14.224Z,0.60
2023-10-31T15:48:16.524Z,0.50
2023-10-31T15:51:19.010Z,0.57
2023-10-31T15:54:21.561Z,0.70
2023-10-31T15:57:25.212Z,0.70
2023-10-31T16:00:29.662Z,0.60
2023-10-31T16:03:32.979Z,0.60
2023-10-31T16:06:35.900Z,0.70
2023-10-31T16:09:38.833Z,0.60
2023-10-31T16:12:41.277Z,0.60
2023-10-31T16:15:43.597Z,0.77
2023-10-31T16:18:46.030Z,0.80
2023-10-31T16:21:50.681Z,0.70
2023-10-31T16:24:53.244Z,0.80
2023-10-31T16:27:56.520Z,0.80
2023-10-31T16:30:59.085Z,0.73
2023-10-31T16:34:01.473Z,0.80
2023-10-31T16:37:03.917Z,1.10
2023-10-31T16:40:07.043Z,0.70
2023-10-31T16:43:09.344Z,0.80
2023-10-31T16:46:11.817Z,0.60
2023-10-31T16:49:14.600Z,0.65
2023-10-31T16:52:16.928Z,1.00
2023-10-31T16:55:19.442Z,0.70
2023-10-31T16:58:21.873Z,1.50
2023-10-31T17:01:24.254Z,0.73
2023-10-31T17:04:26.601Z,1.02
2023-10-31T17:07:29.008Z,0.98
2023-10-31T17:10:31.670Z,0.80
2023-10-31T17:13:35.658Z,0.70
2023-10-31T17:16:40.715Z,0.80
2023-10-31T17:19:43.384Z,0.75
2023-10-31T17:22:45.849Z,0.80
2023-10-31T17:25:49.353Z,0.68
2023-10-31T17:28:52.703Z,1.00
2023-10-31T17:31:55.199Z,1.10
2023-10-31T17:34:57.545Z,1.38
2023-10-31T17:37:59.869Z,1.20
2023-10-31T17:41:02.137Z,1.55
2023-10-31T17:44:04.655Z,1.70
2023-10-31T17:47:07.380Z,1.80
2023-10-31T17:50:10.746Z,2.25
2023-10-31T17:53:13.684Z,2.30
2023-10-31T17:56:16.229Z,2.05
2023-10-31T17:59:18.974Z,1.70
2023-10-31T18:02:21.425Z,1.90
2023-10-31T18:05:23.741Z,2.30
2023-10-31T18:08:26.424Z,1.88
2023-10-31T18:11:28.728Z,2.30
2023-10-31T18:14:31.085Z,2.20
2023-10-31T18:17:34.766Z,1.95
2023-10-31T18:20:37.535Z,2.03
2023-10-31T18:23:40.069Z,2.30
2023-10-31T18:26:43.281Z,2.17
2023-10-31T18:29:45.721Z,2.53
2023-10-31T18:32:48.601Z,1.80
2023-10-31T18:35:51.797Z,2.20
2023-10-31T18:38:54.169Z,1.70
2023-10-31T18:42:03.558Z,2.08
2023-10-31T18:45:15.640Z,1.70
2023-10-31T18:48:18.327Z,2.00
2023-10-31T18:51:21.301Z,2.15
2023-10-31T18:54:23.624Z,2.22
2023-10-31T18:57:26.757Z,1.63
2023-10-31T19:00:29.410Z,1.90
2023-10-31T19:03:31.829Z,1.75
2023-10-31T19:06:34.154Z,1.92
2023-10-31T19:09:36.389Z,1.70
2023-10-31T19:12:38.977Z,1.70
2023-10-31T19:15:41.351Z,1.83
2023-10-31T19:18:43.672Z,1.58
2023-10-31T19:21:46.512Z,2.08
2023-10-31T19:24:49.447Z,1.95
2023-10-31T19:27:51.699Z,1.60
2023-10-31T19:30:54.017Z,1.88
2023-10-31T19:33:57.092Z,1.60
2023-10-31T19:37:00.091Z,1.70
2023-10-31T19:40:04.523Z,1.42
2023-10-31T19:43:06.812Z,1.38
2023-10-31T19:46:09.138Z,1.45
2023-10-31T19:49:12.807Z,1.90
2023-10-31T19:52:15.870Z,1.60
2023-10-31T19:55:19.442Z,2.25
2023-10-31T19:58:24.584Z,2.10
2023-10-31T20:01:27.429Z,2.40
2023-10-31T20:04:29.833Z,2.10
2023-10-31T20:07:32.154Z,2.15
2023-10-31T20:10:34.564Z,1.88
2023-10-31T20:13:36.846Z,1.95
2023-10-31T20:16:39.226Z,2.20
2023-10-31T20:19:41.647Z,2.05
2023-10-31T20:22:43.999Z,2.20
2023-10-31T20:25:46.503Z,1.77
2023-10-31T20:28:49.034Z,2.10
2023-10-31T20:31:51.308Z,1.92
2023-10-31T20:34:53.572Z,1.80
2023-10-31T20:37:55.900Z,1.58
2023-10-31T20:40:58.172Z,1.92
2023-10-31T20:44:02.479Z,1.42
2023-10-31T20:47:06.866Z,2.00
2023-10-31T20:50:10.251Z,2.10
2023-10-31T20:53:12.572Z,1.77
2023-10-31T20:56:14.980Z,1.80
2023-10-31T20:59:19.096Z,2.10
2023-10-31T21:02:21.735Z,2.25
2023-10-31T21:05:24.073Z,1.92
2023-10-31T21:08:27.518Z,1.80
2023-10-31T21:11:30.020Z,1.92
2023-10-31T21:14:32.606Z,1.63
2023-10-31T21:17:35.148Z,1.85
2023-10-31T21:20:37.472Z,1.52
2023-10-31T21:23:39.860Z,1.90
2023-10-31T21:26:42.273Z,1.60
2023-10-31T21:29:44.815Z,1.80
2023-10-31T21:32:47.107Z,2.22
2023-10-31T21:35:49.390Z,1.77
2023-10-31T21:38:52.132Z,1.77
2023-10-31T21:41:54.504Z,2.05
2023-10-31T21:44:57.238Z,1.73
2023-10-31T21:47:59.490Z,2.05
2023-10-31T21:51:02.684Z,2.17
2023-10-31T21:54:05.041Z,1.70
2023-10-31T21:57:07.336Z,2.05
2023-10-31T22:00:10.654Z,1.98
2023-10-31T22:03:16.312Z,1.95
2023-10-31T22:06:20.120Z,2.15
2023-10-31T22:09:22.695Z,2.78
2023-10-31T22:12:25.088Z,2.60
2023-10-31T22:15:27.499Z,2.55
2023-10-31T22:18:29.743Z,2.65
2023-10-31T22:21:32.088Z,2.33
2023-10-31T22:24:34.366Z,2.50
2023-10-31T22:27:40.359Z,2.97
2023-10-31T22:30:42.709Z,2.35
2023-10-31T22:33:45.696Z,3.08
2023-10-31T22:36:48.054Z,2.78
2023-10-31T22:39:50.383Z,2.78
2023-10-31T22:42:52.657Z,2.80
2023-10-31T22:45:54.944Z,2.70
2023-10-31T22:48:57.334Z,2.60
2023-10-31T22:52:00.233Z,2.30
2023-10-31T22:55:04.117Z,3.00
2023-10-31T22:58:06.482Z,2.78
2023-10-31T23:01:08.864Z,2.70
2023-10-31T23:04:11.444Z,2.58
2023-10-31T23:07:13.986Z,2.50
2023-10-31T23:10:16.289Z,2.70
2023-10-31T23:13:18.689Z,2.85
2023-10-31T23:16:21.472Z,2.70
2023-10-31T23:19:23.934Z,3.20
2023-10-31T23:22:27.750Z,2.90
2023-10-31T23:25:30.937Z,3.00
2023-10-31T23:28:35.137Z,2.15
2023-10-31T23:31:37.760Z,2.38
2023-10-31T23:34:40.125Z,2.40
2023-10-31T23:37:42.433Z,2.42
2023-10-31T23:40:47.369Z,2.95
2023-10-31T23:43:49.829Z,2.58
2023-10-31T23:46:53.081Z,2.47
2023-10-31T23:49:55.454Z,2.50
2023-10-31T23:52:57.767Z,2.53
2023-10-31T23:56:00.108Z,2.50
2023-10-31T23:59:02.471Z,2.00
